sensor_id;sensor_type;location;lat;lon;timestamp;P1;durP1;ratioP1;P2;durP2;ratioP2
36573;SDS011;22578;42.668;23.232;2022-10-30T00:01:02;1.33;;;1.23;;
36573;SDS011;22578;42.668;23.232;2022-10-30T00:04:23;1.90;;;1.73;;
36573;SDS011;22578;42.668;23.232;2022-10-30T00:07:43;1.02;;;1.02;;
36573;SDS011;22578;42.668;23.232;2022-10-30T00:11:07;1.75;;;1.65;;
36573;SDS011;22578;42.668;23.232;2022-10-30T00:14:28;1.10;;;1.10;;
36573;SDS011;22578;42.668;23.232;2022-10-30T00:17:49;1.67;;;1.58;;
36573;SDS011;22578;42.668;23.232;2022-10-30T00:21:11;1.05;;;1.05;;
36573;SDS011;22578;42.668;23.232;2022-10-30T00:24:32;1.17;;;1.17;;
36573;SDS011;22578;42.668;23.232;2022-10-30T00:27:52;1.35;;;1.35;;
36573;SDS011;22578;42.668;23.232;2022-10-30T00:31:13;1.00;;;1.00;;
36573;SDS011;22578;42.668;23.232;2022-10-30T00:34:33;1.10;;;1.10;;
36573;SDS011;22578;42.668;23.232;2022-10-30T00:37:53;2.08;;;1.98;;
36573;SDS011;22578;42.668;23.232;2022-10-30T00:41:18;1.10;;;1.10;;
36573;SDS011;22578;42.668;23.232;2022-10-30T00:48:03;1.20;;;1.20;;
36573;SDS011;22578;42.668;23.232;2022-10-30T00:51:24;1.17;;;1.17;;
36573;SDS011;22578;42.668;23.232;2022-10-30T00:54:45;1.25;;;1.25;;
36573;SDS011;22578;42.668;23.232;2022-10-30T00:58:06;1.15;;;1.15;;
36573;SDS011;22578;42.668;23.232;2022-10-30T01:01:28;1.20;;;1.20;;
36573;SDS011;22578;42.668;23.232;2022-10-30T01:04:52;1.10;;;1.10;;
36573;SDS011;22578;42.668;23.232;2022-10-30T01:08:13;1.65;;;1.58;;
36573;SDS011;22578;42.668;23.232;2022-10-30T01:11:34;1.23;;;1.23;;
36573;SDS011;22578;42.668;23.232;2022-10-30T01:14:55;1.30;;;1.30;;
36573;SDS011;22578;42.668;23.232;2022-10-30T01:26:24;2.10;;;2.00;;
36573;SDS011;22578;42.668;23.232;2022-10-30T01:37:42;1.00;;;1.00;;
36573;SDS011;22578;42.668;23.232;2022-10-30T01:41:07;1.10;;;1.10;;
36573;SDS011;22578;42.668;23.232;2022-10-30T01:44:29;1.20;;;1.20;;
36573;SDS011;22578;42.668;23.232;2022-10-30T01:58:48;1.27;;;1.27;;
36573;SDS011;22578;42.668;23.232;2022-10-30T02:02:11;1.60;;;1.50;;
36573;SDS011;22578;42.668;23.232;2022-10-30T02:05:35;1.20;;;1.20;;
36573;SDS011;22578;42.668;23.232;2022-10-30T02:09:02;1.13;;;1.13;;
36573;SDS011;22578;42.668;23.232;2022-10-30T02:12:23;1.58;;;1.50;;
36573;SDS011;22578;42.668;23.232;2022-10-30T02:15:45;1.10;;;1.10;;
36573;SDS011;22578;42.668;23.232;2022-10-30T02:19:07;1.10;;;1.10;;
36573;SDS011;22578;42.668;23.232;2022-10-30T02:22:28;1.20;;;1.20;;
36573;SDS011;22578;42.668;23.232;2022-10-30T02:25:48;1.30;;;1.30;;
36573;SDS011;22578;42.668;23.232;2022-10-30T02:29:08;1.30;;;1.30;;
36573;SDS011;22578;42.668;23.232;2022-10-30T02:32:29;4.20;;;1.42;;
36573;SDS011;22578;42.668;23.232;2022-10-30T02:35:49;1.27;;;1.27;;
36573;SDS011;22578;42.668;23.232;2022-10-30T02:39:10;1.02;;;1.02;;
36573;SDS011;22578;42.668;23.232;2022-10-30T02:42:30;1.30;;;1.30;;
36573;SDS011;22578;42.668;23.232;2022-10-30T02:45:51;1.23;;;1.23;;
36573;SDS011;22578;42.668;23.232;2022-10-30T02:49:11;1.33;;;1.33;;
36573;SDS011;22578;42.668;23.232;2022-10-30T02:52:32;1.15;;;1.15;;
36573;SDS011;22578;42.668;23.232;2022-10-30T02:55:52;1.40;;;1.40;;
36573;SDS011;22578;42.668;23.232;2022-10-30T02:59:12;1.20;;;1.20;;
36573;SDS011;22578;42.668;23.232;2022-10-30T03:02:33;1.40;;;1.35;;
36573;SDS011;22578;42.668;23.232;2022-10-30T03:05:53;1.30;;;1.30;;
36573;SDS011;22578;42.668;23.232;2022-10-30T03:09:14;1.73;;;1.63;;
36573;SDS011;22578;42.668;23.232;2022-10-30T03:12:34;1.35;;;1.35;;
36573;SDS011;22578;42.668;23.232;2022-10-30T03:16:01;1.60;;;1.50;;
36573;SDS011;22578;42.668;23.232;2022-10-30T03:19:26;1.42;;;1.42;;
36573;SDS011;22578;42.668;23.232;2022-10-30T03:22:46;1.63;;;1.52;;
36573;SDS011;22578;42.668;23.232;2022-10-30T03:26:07;1.15;;;1.15;;
36573;SDS011;22578;42.668;23.232;2022-10-30T03:29:28;1.40;;;1.33;;
36573;SDS011;22578;42.668;23.232;2022-10-30T03:32:49;1.48;;;1.38;;
36573;SDS011;22578;42.668;23.232;2022-10-30T03:36:09;1.45;;;1.35;;
36573;SDS011;22578;42.668;23.232;2022-10-30T03:39:31;1.92;;;1.83;;
36573;SDS011;22578;42.668;23.232;2022-10-30T03:42:51;2.17;;;2.08;;
36573;SDS011;22578;42.668;23.232;2022-10-30T03:46:12;1.10;;;1.10;;
36573;SDS011;22578;42.668;23.232;2022-10-30T03:49:32;1.30;;;1.30;;
36573;SDS011;22578;42.668;23.232;2022-10-30T03:52:53;1.30;;;1.30;;
36573;SDS011;22578;42.668;23.232;2022-10-30T03:56:14;1.20;;;1.20;;
36573;SDS011;22578;42.668;23.232;2022-10-30T03:59:34;1.15;;;1.15;;
36573;SDS011;22578;42.668;23.232;2022-10-30T04:02:55;1.67;;;1.58;;
36573;SDS011;22578;42.668;23.232;2022-10-30T04:06:15;1.23;;;1.23;;
36573;SDS011;22578;42.668;23.232;2022-10-30T04:09:36;1.33;;;1.33;;
36573;SDS011;22578;42.668;23.232;2022-10-30T04:12:59;1.23;;;1.23;;
36573;SDS011;22578;42.668;23.232;2022-10-30T04:16:21;1.63;;;1.52;;
36573;SDS011;22578;42.668;23.232;2022-10-30T04:19:41;1.65;;;1.55;;
36573;SDS011;22578;42.668;23.232;2022-10-30T04:23:03;1.10;;;1.10;;
36573;SDS011;22578;42.668;23.232;2022-10-30T04:26:24;1.55;;;1.48;;
36573;SDS011;22578;42.668;23.232;2022-10-30T04:29:45;1.08;;;1.08;;
36573;SDS011;22578;42.668;23.232;2022-10-30T04:33:06;1.20;;;1.20;;
36573;SDS011;22578;42.668;23.232;2022-10-30T04:36:29;1.52;;;1.42;;
36573;SDS011;22578;42.668;23.232;2022-10-30T04:39:52;1.73;;;1.63;;
36573;SDS011;22578;42.668;23.232;2022-10-30T04:43:13;1.10;;;1.10;;
36573;SDS011;22578;42.668;23.232;2022-10-30T04:46:34;1.65;;;1.42;;
36573;SDS011;22578;42.668;23.232;2022-10-30T04:49:54;1.67;;;1.58;;
36573;SDS011;22578;42.668;23.232;2022-10-30T04:53:16;1.10;;;1.10;;
36573;SDS011;22578;42.668;23.232;2022-10-30T04:56:37;1.40;;;1.40;;
36573;SDS011;22578;42.668;23.232;2022-10-30T04:59:57;2.00;;;1.90;;
36573;SDS011;22578;42.668;23.232;2022-10-30T05:03:19;1.90;;;1.80;;
36573;SDS011;22578;42.668;23.232;2022-10-30T05:06:40;1.20;;;1.20;;
36573;SDS011;22578;42.668;23.232;2022-10-30T05:10:01;1.60;;;1.50;;
36573;SDS011;22578;42.668;23.232;2022-10-30T05:13:21;1.02;;;1.02;;
36573;SDS011;22578;42.668;23.232;2022-10-30T05:16:42;1.10;;;1.10;;
36573;SDS011;22578;42.668;23.232;2022-10-30T05:20:03;1.10;;;1.10;;
36573;SDS011;22578;42.668;23.232;2022-10-30T05:23:24;1.45;;;1.35;;
36573;SDS011;22578;42.668;23.232;2022-10-30T05:26:45;1.70;;;1.63;;
36573;SDS011;22578;42.668;23.232;2022-10-30T05:30:05;1.50;;;1.40;;
36573;SDS011;22578;42.668;23.232;2022-10-30T05:33:26;1.70;;;1.60;;
36573;SDS011;22578;42.668;23.232;2022-10-30T05:36:46;2.67;;;1.42;;
36573;SDS011;22578;42.668;23.232;2022-10-30T05:40:07;1.23;;;1.23;;
36573;SDS011;22578;42.668;23.232;2022-10-30T05:43:28;1.23;;;1.23;;
36573;SDS011;22578;42.668;23.232;2022-10-30T05:46:48;1.63;;;1.52;;
36573;SDS011;22578;42.668;23.232;2022-10-30T05:50:09;1.38;;;1.35;;
36573;SDS011;22578;42.668;23.232;2022-10-30T05:53:31;1.38;;;1.38;;
36573;SDS011;22578;42.668;23.232;2022-10-30T05:56:51;1.30;;;1.30;;
36573;SDS011;22578;42.668;23.232;2022-10-30T06:00:12;1.45;;;1.38;;
36573;SDS011;22578;42.668;23.232;2022-10-30T06:03:33;1.55;;;1.50;;
36573;SDS011;22578;42.668;23.232;2022-10-30T06:06:53;1.67;;;1.58;;
36573;SDS011;22578;42.668;23.232;2022-10-30T06:10:13;1.95;;;1.85;;
36573;SDS011;22578;42.668;23.232;2022-10-30T06:13:34;1.15;;;1.15;;
36573;SDS011;22578;42.668;23.232;2022-10-30T06:16:54;3.45;;;1.50;;
36573;SDS011;22578;42.668;23.232;2022-10-30T06:20:15;3.08;;;2.40;;
36573;SDS011;22578;42.668;23.232;2022-10-30T06:23:37;1.45;;;1.38;;
36573;SDS011;22578;42.668;23.232;2022-10-30T06:26:57;1.30;;;1.30;;
36573;SDS011;22578;42.668;23.232;2022-10-30T06:30:18;1.70;;;1.60;;
36573;SDS011;22578;42.668;23.232;2022-10-30T06:33:38;1.98;;;1.88;;
36573;SDS011;22578;42.668;23.232;2022-10-30T06:36:59;1.80;;;1.70;;
36573;SDS011;22578;42.668;23.232;2022-10-30T06:40:19;1.60;;;1.50;;
36573;SDS011;22578;42.668;23.232;2022-10-30T06:43:40;1.60;;;1.50;;
36573;SDS011;22578;42.668;23.232;2022-10-30T06:47:00;1.90;;;1.80;;
36573;SDS011;22578;42.668;23.232;2022-10-30T06:50:21;1.88;;;1.77;;
36573;SDS011;22578;42.668;23.232;2022-10-30T06:53:43;2.70;;;2.50;;
36573;SDS011;22578;42.668;23.232;2022-10-30T06:57:03;2.10;;;2.00;;
36573;SDS011;22578;42.668;23.232;2022-10-30T07:00:23;2.05;;;1.95;;
36573;SDS011;22578;42.668;23.232;2022-10-30T07:03:44;2.70;;;2.47;;
36573;SDS011;22578;42.668;23.232;2022-10-30T07:07:04;2.08;;;1.98;;
36573;SDS011;22578;42.668;23.232;2022-10-30T07:10:24;1.83;;;1.73;;
36573;SDS011;22578;42.668;23.232;2022-10-30T07:13:45;1.73;;;1.63;;
36573;SDS011;22578;42.668;23.232;2022-10-30T07:17:05;2.22;;;2.00;;
36573;SDS011;22578;42.668;23.232;2022-10-30T07:20:26;1.70;;;1.60;;
36573;SDS011;22578;42.668;23.232;2022-10-30T07:23:48;1.85;;;1.75;;
36573;SDS011;22578;42.668;23.232;2022-10-30T07:27:08;1.10;;;1.10;;
36573;SDS011;22578;42.668;23.232;2022-10-30T07:30:29;1.70;;;1.60;;
36573;SDS011;22578;42.668;23.232;2022-10-30T07:33:49;3.22;;;2.67;;
36573;SDS011;22578;42.668;23.232;2022-10-30T07:37:10;2.30;;;2.10;;
36573;SDS011;22578;42.668;23.232;2022-10-30T07:40:30;2.03;;;1.80;;
36573;SDS011;22578;42.668;23.232;2022-10-30T07:43:51;3.35;;;3.05;;
36573;SDS011;22578;42.668;23.232;2022-10-30T07:47:12;2.05;;;1.95;;
36573;SDS011;22578;42.668;23.232;2022-10-30T07:50:32;1.48;;;1.40;;
36573;SDS011;22578;42.668;23.232;2022-10-30T07:53:52;1.75;;;1.65;;
36573;SDS011;22578;42.668;23.232;2022-10-30T07:57:13;2.22;;;2.13;;
36573;SDS011;22578;42.668;23.232;2022-10-30T08:00:33;2.35;;;2.22;;
36573;SDS011;22578;42.668;23.232;2022-10-30T08:03:53;2.40;;;2.28;;
36573;SDS011;22578;42.668;23.232;2022-10-30T08:07:14;2.47;;;2.28;;
36573;SDS011;22578;42.668;23.232;2022-10-30T08:10:34;2.17;;;2.03;;
36573;SDS011;22578;42.668;23.232;2022-10-30T08:13:55;4.10;;;2.92;;
36573;SDS011;22578;42.668;23.232;2022-10-30T08:17:16;3.45;;;3.15;;
36573;SDS011;22578;42.668;23.232;2022-10-30T08:20:36;2.38;;;2.15;;
36573;SDS011;22578;42.668;23.232;2022-10-30T08:23:56;2.55;;;2.35;;
36573;SDS011;22578;42.668;23.232;2022-10-30T08:27:17;2.92;;;2.72;;
36573;SDS011;22578;42.668;23.232;2022-10-30T08:30:37;2.65;;;2.45;;
36573;SDS011;22578;42.668;23.232;2022-10-30T08:33:58;2.03;;;1.90;;
36573;SDS011;22578;42.668;23.232;2022-10-30T08:37:18;2.00;;;1.85;;
36573;SDS011;22578;42.668;23.232;2022-10-30T08:40:38;2.42;;;2.22;;
36573;SDS011;22578;42.668;23.232;2022-10-30T08:43:59;3.33;;;3.03;;
36573;SDS011;22578;42.668;23.232;2022-10-30T08:47:19;2.42;;;2.22;;
36573;SDS011;22578;42.668;23.232;2022-10-30T08:50:40;1.98;;;1.83;;
36573;SDS011;22578;42.668;23.232;2022-10-30T08:54:01;1.83;;;1.73;;
36573;SDS011;22578;42.668;23.232;2022-10-30T08:57:21;1.70;;;1.60;;
36573;SDS011;22578;42.668;23.232;2022-10-30T09:00:41;2.53;;;2.33;;
36573;SDS011;22578;42.668;23.232;2022-10-30T09:04:02;2.38;;;1.70;;
36573;SDS011;22578;42.668;23.232;2022-10-30T09:07:22;2.53;;;2.33;;
36573;SDS011;22578;42.668;23.232;2022-10-30T09:10:42;2.20;;;2.00;;
36573;SDS011;22578;42.668;23.232;2022-10-30T09:14:03;3.78;;;2.47;;
36573;SDS011;22578;42.668;23.232;2022-10-30T09:17:23;2.00;;;1.90;;
36573;SDS011;22578;42.668;23.232;2022-10-30T09:20:44;1.55;;;1.45;;
36573;SDS011;22578;42.668;23.232;2022-10-30T09:24:07;1.98;;;1.88;;
36573;SDS011;22578;42.668;23.232;2022-10-30T09:27:28;3.38;;;2.28;;
36573;SDS011;22578;42.668;23.232;2022-10-30T09:30:48;3.10;;;2.83;;
36573;SDS011;22578;42.668;23.232;2022-10-30T09:34:11;2.05;;;1.90;;
36573;SDS011;22578;42.668;23.232;2022-10-30T09:37:32;1.73;;;1.63;;
36573;SDS011;22578;42.668;23.232;2022-10-30T09:51:55;1.70;;;1.60;;
36573;SDS011;22578;42.668;23.232;2022-10-30T09:55:35;1.00;;;1.00;;
36573;SDS011;22578;42.668;23.232;2022-10-30T10:02:29;0.90;;;0.90;;
36573;SDS011;22578;42.668;23.232;2022-10-30T10:05:57;1.10;;;1.10;;
36573;SDS011;22578;42.668;23.232;2022-10-30T10:09:19;2.97;;;1.67;;
36573;SDS011;22578;42.668;23.232;2022-10-30T10:12:44;1.55;;;1.45;;
36573;SDS011;22578;42.668;23.232;2022-10-30T10:19:38;1.27;;;1.17;;
36573;SDS011;22578;42.668;23.232;2022-10-30T10:23:03;0.93;;;0.93;;
36573;SDS011;22578;42.668;23.232;2022-10-30T10:26:55;0.90;;;0.90;;
36573;SDS011;22578;42.668;23.232;2022-10-30T10:30:20;1.00;;;1.00;;
36573;SDS011;22578;42.668;23.232;2022-10-30T10:33:47;1.33;;;1.23;;
36573;SDS011;22578;42.668;23.232;2022-10-30T10:44:27;0.88;;;0.88;;
36573;SDS011;22578;42.668;23.232;2022-10-30T10:51:26;1.10;;;1.10;;
36573;SDS011;22578;42.668;23.232;2022-10-30T10:55:01;0.90;;;0.90;;
36573;SDS011;22578;42.668;23.232;2022-10-30T10:58:35;1.15;;;1.13;;
36573;SDS011;22578;42.668;23.232;2022-10-30T11:06:01;1.17;;;1.15;;
36573;SDS011;22578;42.668;23.232;2022-10-30T11:09:39;1.20;;;1.13;;
36573;SDS011;22578;42.668;23.232;2022-10-30T11:13:00;0.90;;;0.90;;
36573;SDS011;22578;42.668;23.232;2022-10-30T11:16:28;1.00;;;1.00;;
36573;SDS011;22578;42.668;23.232;2022-10-30T11:19:59;1.27;;;1.17;;
36573;SDS011;22578;42.668;23.232;2022-10-30T11:30:42;0.85;;;0.85;;
36573;SDS011;22578;42.668;23.232;2022-10-30T11:37:39;0.73;;;0.73;;
36573;SDS011;22578;42.668;23.232;2022-10-30T11:41:00;1.00;;;1.00;;
36573;SDS011;22578;42.668;23.232;2022-10-30T11:44:26;0.73;;;0.73;;
36573;SDS011;22578;42.668;23.232;2022-10-30T11:47:57;0.80;;;0.80;;
36573;SDS011;22578;42.668;23.232;2022-10-30T11:51:33;0.85;;;0.85;;
36573;SDS011;22578;42.668;23.232;2022-10-30T11:54:56;0.70;;;0.70;;
36573;SDS011;22578;42.668;23.232;2022-10-30T11:58:29;0.70;;;0.70;;
36573;SDS011;22578;42.668;23.232;2022-10-30T12:02:02;1.55;;;1.20;;
36573;SDS011;22578;42.668;23.232;2022-10-30T12:05:40;1.38;;;1.27;;
36573;SDS011;22578;42.668;23.232;2022-10-30T12:09:11;1.10;;;1.05;;
36573;SDS011;22578;42.668;23.232;2022-10-30T12:12:35;0.85;;;0.85;;
36573;SDS011;22578;42.668;23.232;2022-10-30T12:16:08;1.23;;;1.13;;
36573;SDS011;22578;42.668;23.232;2022-10-30T12:19:33;0.98;;;0.98;;
36573;SDS011;22578;42.668;23.232;2022-10-30T12:22:54;1.20;;;1.15;;
36573;SDS011;22578;42.668;23.232;2022-10-30T12:26:14;0.93;;;0.93;;
36573;SDS011;22578;42.668;23.232;2022-10-30T12:29:53;1.50;;;0.90;;
36573;SDS011;22578;42.668;23.232;2022-10-30T12:33:41;0.80;;;0.80;;
36573;SDS011;22578;42.668;23.232;2022-10-30T12:37:07;0.88;;;0.88;;
36573;SDS011;22578;42.668;23.232;2022-10-30T12:40:35;0.93;;;0.93;;
36573;SDS011;22578;42.668;23.232;2022-10-30T12:58:36;0.68;;;0.68;;
36573;SDS011;22578;42.668;23.232;2022-10-30T13:12:14;2.50;;;1.10;;
36573;SDS011;22578;42.668;23.232;2022-10-30T13:15:39;0.88;;;0.88;;
36573;SDS011;22578;42.668;23.232;2022-10-30T13:19:04;0.93;;;0.93;;
36573;SDS011;22578;42.668;23.232;2022-10-30T13:22:29;0.70;;;0.70;;
36573;SDS011;22578;42.668;23.232;2022-10-30T13:25:59;0.77;;;0.77;;
36573;SDS011;22578;42.668;23.232;2022-10-30T13:29:28;0.70;;;0.70;;
36573;SDS011;22578;42.668;23.232;2022-10-30T13:36:45;0.80;;;0.80;;
36573;SDS011;22578;42.668;23.232;2022-10-30T13:43:51;0.70;;;0.70;;
36573;SDS011;22578;42.668;23.232;2022-10-30T13:47:18;0.75;;;0.75;;
36573;SDS011;22578;42.668;23.232;2022-10-30T13:55:31;1.05;;;1.05;;
36573;SDS011;22578;42.668;23.232;2022-10-30T14:02:21;0.80;;;0.80;;
36573;SDS011;22578;42.668;23.232;2022-10-30T14:05:57;0.70;;;0.70;;
36573;SDS011;22578;42.668;23.232;2022-10-30T14:13:25;4.10;;;2.00;;
36573;SDS011;22578;42.668;23.232;2022-10-30T14:17:09;1.80;;;1.70;;
36573;SDS011;22578;42.668;23.232;2022-10-30T14:20:32;1.20;;;1.20;;
36573;SDS011;22578;42.668;23.232;2022-10-30T14:24:00;0.90;;;0.90;;
36573;SDS011;22578;42.668;23.232;2022-10-30T14:27:30;0.85;;;0.85;;
36573;SDS011;22578;42.668;23.232;2022-10-30T14:31:01;1.58;;;1.48;;
36573;SDS011;22578;42.668;23.232;2022-10-30T14:34:45;1.60;;;1.50;;
36573;SDS011;22578;42.668;23.232;2022-10-30T14:38:21;1.00;;;1.00;;
36573;SDS011;22578;42.668;23.232;2022-10-30T14:52:16;1.25;;;1.15;;
36573;SDS011;22578;42.668;23.232;2022-10-30T14:56:07;1.50;;;1.40;;
36573;SDS011;22578;42.668;23.232;2022-10-30T14:59:38;0.93;;;0.93;;
36573;SDS011;22578;42.668;23.232;2022-10-30T15:13:22;1.27;;;1.27;;
36573;SDS011;22578;42.668;23.232;2022-10-30T15:16:42;1.98;;;1.88;;
36573;SDS011;22578;42.668;23.232;2022-10-30T15:20:07;0.90;;;0.90;;
36573;SDS011;22578;42.668;23.232;2022-10-30T15:23:34;1.42;;;1.33;;
36573;SDS011;22578;42.668;23.232;2022-10-30T15:26:56;1.23;;;1.15;;
36573;SDS011;22578;42.668;23.232;2022-10-30T15:30:19;1.20;;;1.20;;
36573;SDS011;22578;42.668;23.232;2022-10-30T15:33:42;1.20;;;1.20;;
36573;SDS011;22578;42.668;23.232;2022-10-30T15:37:09;0.90;;;0.90;;
36573;SDS011;22578;42.668;23.232;2022-10-30T15:40:35;1.10;;;1.10;;
36573;SDS011;22578;42.668;23.232;2022-10-30T15:43:56;1.55;;;1.45;;
36573;SDS011;22578;42.668;23.232;2022-10-30T15:47:18;1.70;;;1.48;;
36573;SDS011;22578;42.668;23.232;2022-10-30T15:50:40;0.90;;;0.90;;
36573;SDS011;22578;42.668;23.232;2022-10-30T15:54:05;0.80;;;0.80;;
36573;SDS011;22578;42.668;23.232;2022-10-30T15:57:33;1.13;;;1.13;;
36573;SDS011;22578;42.668;23.232;2022-10-30T16:00:59;1.02;;;1.00;;
36573;SDS011;22578;42.668;23.232;2022-10-30T16:04:22;2.20;;;1.88;;
36573;SDS011;22578;42.668;23.232;2022-10-30T16:07:46;0.93;;;0.93;;
36573;SDS011;22578;42.668;23.232;2022-10-30T16:11:07;1.38;;;1.30;;
36573;SDS011;22578;42.668;23.232;2022-10-30T16:14:27;1.63;;;1.52;;
36573;SDS011;22578;42.668;23.232;2022-10-30T16:21:27;1.25;;;1.17;;
36573;SDS011;22578;42.668;23.232;2022-10-30T16:24:51;1.42;;;1.33;;
36573;SDS011;22578;42.668;23.232;2022-10-30T16:28:22;1.00;;;1.00;;
36573;SDS011;22578;42.668;23.232;2022-10-30T16:31:48;1.70;;;1.60;;
36573;SDS011;22578;42.668;23.232;2022-10-30T16:35:09;2.83;;;2.55;;
36573;SDS011;22578;42.668;23.232;2022-10-30T16:38:33;2.03;;;1.92;;
36573;SDS011;22578;42.668;23.232;2022-10-30T16:41:56;1.80;;;1.70;;
36573;SDS011;22578;42.668;23.232;2022-10-30T16:48:56;1.02;;;1.02;;
36573;SDS011;22578;42.668;23.232;2022-10-30T16:52:19;1.25;;;1.25;;
36573;SDS011;22578;42.668;23.232;2022-10-30T16:55:43;1.35;;;1.25;;
36573;SDS011;22578;42.668;23.232;2022-10-30T16:59:13;1.00;;;1.00;;
36573;SDS011;22578;42.668;23.232;2022-10-30T17:02:35;1.15;;;1.15;;
36573;SDS011;22578;42.668;23.232;2022-10-30T17:09:55;1.48;;;1.33;;
36573;SDS011;22578;42.668;23.232;2022-10-30T17:17:01;1.65;;;1.55;;
36573;SDS011;22578;42.668;23.232;2022-10-30T17:20:25;1.10;;;1.10;;
36573;SDS011;22578;42.668;23.232;2022-10-30T17:23:53;0.90;;;0.90;;
36573;SDS011;22578;42.668;23.232;2022-10-30T17:27:26;0.90;;;0.90;;
36573;SDS011;22578;42.668;23.232;2022-10-30T17:31:45;1.10;;;1.10;;
36573;SDS011;22578;42.668;23.232;2022-10-30T17:34:41;1.38;;;1.30;;
36573;SDS011;22578;42.668;23.232;2022-10-30T17:38:01;1.00;;;1.00;;
36573;SDS011;22578;42.668;23.232;2022-10-30T17:41:21;1.23;;;1.23;;
36573;SDS011;22578;42.668;23.232;2022-10-30T17:44:42;1.10;;;1.10;;
36573;SDS011;22578;42.668;23.232;2022-10-30T17:48:06;0.90;;;0.90;;
36573;SDS011;22578;42.668;23.232;2022-10-30T17:51:34;0.95;;;0.95;;
36573;SDS011;22578;42.668;23.232;2022-10-30T17:54:54;2.15;;;1.83;;
36573;SDS011;22578;42.668;23.232;2022-10-30T17:58:14;1.75;;;1.65;;
36573;SDS011;22578;42.668;23.232;2022-10-30T18:01:35;1.05;;;1.00;;
36573;SDS011;22578;42.668;23.232;2022-10-30T18:04:55;2.67;;;1.65;;
36573;SDS011;22578;42.668;23.232;2022-10-30T18:08:16;1.55;;;1.45;;
36573;SDS011;22578;42.668;23.232;2022-10-30T18:11:36;1.00;;;1.00;;
36573;SDS011;22578;42.668;23.232;2022-10-30T18:14:57;1.00;;;1.00;;
36573;SDS011;22578;42.668;23.232;2022-10-30T18:18:17;0.93;;;0.93;;
36573;SDS011;22578;42.668;23.232;2022-10-30T18:21:38;1.88;;;1.77;;
36573;SDS011;22578;42.668;23.232;2022-10-30T18:24:58;2.28;;;2.08;;
36573;SDS011;22578;42.668;23.232;2022-10-30T18:28:19;11.45;;;3.38;;
36573;SDS011;22578;42.668;23.232;2022-10-30T18:31:39;1.58;;;1.48;;
36573;SDS011;22578;42.668;23.232;2022-10-30T18:34:59;0.90;;;0.90;;
36573;SDS011;22578;42.668;23.232;2022-10-30T18:38:20;0.90;;;0.90;;
36573;SDS011;22578;42.668;23.232;2022-10-30T18:41:44;1.10;;;1.10;;
36573;SDS011;22578;42.668;23.232;2022-10-30T18:45:11;1.15;;;1.15;;
36573;SDS011;22578;42.668;23.232;2022-10-30T18:48:37;2.45;;;2.17;;
36573;SDS011;22578;42.668;23.232;2022-10-30T18:51:58;0.90;;;0.90;;
36573;SDS011;22578;42.668;23.232;2022-10-30T18:55:22;1.00;;;1.00;;
36573;SDS011;22578;42.668;23.232;2022-10-30T18:58:43;1.17;;;1.17;;
36573;SDS011;22578;42.668;23.232;2022-10-30T19:02:10;1.00;;;1.00;;
36573;SDS011;22578;42.668;23.232;2022-10-30T19:09:00;2.20;;;2.03;;
36573;SDS011;22578;42.668;23.232;2022-10-30T19:12:20;1.05;;;1.05;;
36573;SDS011;22578;42.668;23.232;2022-10-30T19:15:41;1.17;;;1.17;;
36573;SDS011;22578;42.668;23.232;2022-10-30T19:19:03;1.00;;;1.00;;
36573;SDS011;22578;42.668;23.232;2022-10-30T19:22:24;1.17;;;1.15;;
36573;SDS011;22578;42.668;23.232;2022-10-30T19:25:45;0.90;;;0.90;;
36573;SDS011;22578;42.668;23.232;2022-10-30T19:29:06;0.90;;;0.90;;
36573;SDS011;22578;42.668;23.232;2022-10-30T19:32:26;0.93;;;0.93;;
36573;SDS011;22578;42.668;23.232;2022-10-30T19:35:57;1.00;;;1.00;;
36573;SDS011;22578;42.668;23.232;2022-10-30T19:39:20;1.00;;;1.00;;
36573;SDS011;22578;42.668;23.232;2022-10-30T19:42:40;1.00;;;1.00;;
36573;SDS011;22578;42.668;23.232;2022-10-30T19:46:00;1.10;;;1.08;;
36573;SDS011;22578;42.668;23.232;2022-10-30T19:49:21;1.00;;;1.00;;
36573;SDS011;22578;42.668;23.232;2022-10-30T19:52:42;1.00;;;1.00;;
36573;SDS011;22578;42.668;23.232;2022-10-30T19:56:02;1.02;;;1.02;;
36573;SDS011;22578;42.668;23.232;2022-10-30T19:59:23;0.90;;;0.90;;
36573;SDS011;22578;42.668;23.232;2022-10-30T20:02:44;1.02;;;1.02;;
36573;SDS011;22578;42.668;23.232;2022-10-30T20:06:05;1.08;;;1.08;;
36573;SDS011;22578;42.668;23.232;2022-10-30T20:09:28;0.90;;;0.90;;
36573;SDS011;22578;42.668;23.232;2022-10-30T20:12:49;1.10;;;1.10;;
36573;SDS011;22578;42.668;23.232;2022-10-30T20:16:10;1.75;;;1.52;;
36573;SDS011;22578;42.668;23.232;2022-10-30T20:19:30;2.30;;;1.48;;
36573;SDS011;22578;42.668;23.232;2022-10-30T20:22:51;0.90;;;0.90;;
36573;SDS011;22578;42.668;23.232;2022-10-30T20:26:17;1.05;;;1.05;;
36573;SDS011;22578;42.668;23.232;2022-10-30T20:29:43;1.38;;;1.27;;
36573;SDS011;22578;42.668;23.232;2022-10-30T20:33:03;0.90;;;0.90;;
36573;SDS011;22578;42.668;23.232;2022-10-30T20:36:23;1.30;;;1.23;;
36573;SDS011;22578;42.668;23.232;2022-10-30T20:39:44;1.48;;;1.10;;
36573;SDS011;22578;42.668;23.232;2022-10-30T20:43:09;0.90;;;0.90;;
36573;SDS011;22578;42.668;23.232;2022-10-30T20:46:31;1.00;;;1.00;;
36573;SDS011;22578;42.668;23.232;2022-10-30T20:49:52;1.10;;;1.10;;
36573;SDS011;22578;42.668;23.232;2022-10-30T20:53:12;1.10;;;1.10;;
36573;SDS011;22578;42.668;23.232;2022-10-30T20:56:32;1.10;;;1.10;;
36573;SDS011;22578;42.668;23.232;2022-10-30T20:59:53;0.80;;;0.80;;
36573;SDS011;22578;42.668;23.232;2022-10-30T21:03:14;1.45;;;1.35;;
36573;SDS011;22578;42.668;23.232;2022-10-30T21:06:34;1.33;;;1.30;;
36573;SDS011;22578;42.668;23.232;2022-10-30T21:09:55;1.40;;;1.27;;
36573;SDS011;22578;42.668;23.232;2022-10-30T21:13:15;1.17;;;1.17;;
36573;SDS011;22578;42.668;23.232;2022-10-30T21:16:35;2.80;;;2.17;;
36573;SDS011;22578;42.668;23.232;2022-10-30T21:19:56;1.02;;;1.02;;
36573;SDS011;22578;42.668;23.232;2022-10-30T21:23:16;0.93;;;0.93;;
36573;SDS011;22578;42.668;23.232;2022-10-30T21:26:37;0.95;;;0.95;;
36573;SDS011;22578;42.668;23.232;2022-10-30T21:29:57;0.90;;;0.90;;
36573;SDS011;22578;42.668;23.232;2022-10-30T21:33:17;1.20;;;1.20;;
36573;SDS011;22578;42.668;23.232;2022-10-30T21:36:38;0.90;;;0.90;;
36573;SDS011;22578;42.668;23.232;2022-10-30T21:39:58;1.00;;;1.00;;
36573;SDS011;22578;42.668;23.232;2022-10-30T21:43:18;1.10;;;1.10;;
36573;SDS011;22578;42.668;23.232;2022-10-30T21:46:39;1.00;;;1.00;;
36573;SDS011;22578;42.668;23.232;2022-10-30T21:50:00;1.08;;;1.08;;
36573;SDS011;22578;42.668;23.232;2022-10-30T21:53:20;1.05;;;1.05;;
36573;SDS011;22578;42.668;23.232;2022-10-30T21:56:41;1.20;;;1.20;;
36573;SDS011;22578;42.668;23.232;2022-10-30T22:00:01;1.17;;;1.17;;
36573;SDS011;22578;42.668;23.232;2022-10-30T22:03:22;0.90;;;0.90;;
36573;SDS011;22578;42.668;23.232;2022-10-30T22:06:43;1.42;;;1.33;;
36573;SDS011;22578;42.668;23.232;2022-10-30T22:10:04;0.90;;;0.90;;
36573;SDS011;22578;42.668;23.232;2022-10-30T22:13:25;1.10;;;1.10;;
36573;SDS011;22578;42.668;23.232;2022-10-30T22:16:46;1.05;;;1.05;;
36573;SDS011;22578;42.668;23.232;2022-10-30T22:20:07;1.05;;;1.05;;
36573;SDS011;22578;42.668;23.232;2022-10-30T22:23:28;2.45;;;1.55;;
36573;SDS011;22578;42.668;23.232;2022-10-30T22:26:49;1.00;;;1.00;;
36573;SDS011;22578;42.668;23.232;2022-10-30T22:30:09;1.15;;;1.15;;
36573;SDS011;22578;42.668;23.232;2022-10-30T22:33:30;1.10;;;1.10;;
36573;SDS011;22578;42.668;23.232;2022-10-30T22:36:51;0.90;;;0.90;;
36573;SDS011;22578;42.668;23.232;2022-10-30T22:40:12;1.13;;;1.13;;